Time;durP1;ratioP1;P1;durP2;ratioP2;P2;SDS_P1;SDS_P2;PMS_P1;PMS_P2;Temp;Humidity;BMP_temperature;BMP_pressure;BME280_temperature;BME280_humidity;BME280_pressure;Samples;Min_cycle;Max_cycle;Signal;HPM_P1;HPM_P2
2022/07/26 00:02:24;;;;;;;5.93;1.65;;;;;;;17.31;75.92;101212.59;4972107;28;20045;-88
2022/07/26 00:04:50;;;;;;;8.27;1.50;;;;;;;17.39;75.64;101211.91;4974533;28;20034;-89
2022/07/26 00:07:15;;;;;;;5.77;1.60;;;;;;;17.39;75.64;101213.81;4975502;28;20403;-88
2022/07/26 00:09:40;;;;;;;3.60;1.40;;;;;;;17.41;75.64;101215.13;4976374;28;20098;-88
2022/07/26 00:12:06;;;;;;;8.53;1.67;;;;;;;17.48;75.36;101211.25;4977270;28;20395;-88
2022/07/26 00:14:31;;;;;;;6.20;1.60;;;;;;;17.53;75.12;101222.81;4977075;28;20105;-89
2022/07/26 00:16:57;;;;;;;5.23;1.40;;;;;;;17.58;74.87;101215.72;4976233;28;20031;-88
2022/07/26 00:19:22;;;;;;;6.13;1.50;;;;;;;17.54;75.21;101224.41;4978415;28;20026;-89
2022/07/26 00:22:32;;;;;;;6.28;1.60;;;;;;;17.62;74.98;101211.31;4978306;28;20551;-88
2022/07/26 00:24:33;;;;;;;9.20;1.63;;;;;;;17.63;74.71;101213.72;4979692;28;20058;-88
2022/07/26 00:26:58;;;;;;;6.20;1.70;;;;;;;17.61;74.98;101215.91;4979430;28;20278;-89
2022/07/26 00:29:23;;;;;;;8.23;1.50;;;;;;;17.56;75.33;101216.00;4978691;28;20023;-89
2022/07/26 00:31:48;;;;;;;8.77;1.80;;;;;;;17.55;75.20;101217.09;4976264;28;20027;-89
2022/07/26 00:34:14;;;;;;;8.30;1.80;;;;;;;17.54;75.10;101220.91;4972665;28;20086;-90
2022/07/26 00:36:39;;;;;;;7.27;1.80;;;;;;;17.50;75.59;101219.91;4975198;28;20062;-87
2022/07/26 00:39:04;;;;;;;7.63;1.80;;;;;;;17.49;75.97;101229.13;4975609;28;20073;-87
2022/07/26 00:41:29;;;;;;;6.03;1.47;;;;;;;17.44;75.95;101229.19;4974129;28;20534;-88
2022/07/26 00:43:58;;;;;;;5.37;1.40;;;;;;;17.46;75.65;101232.41;4956282;28;20047;-88
2022/07/26 00:46:24;;;;;;;4.97;1.70;;;;;;;17.44;76.63;101229.19;4972348;28;20023;-89
2022/07/26 00:48:50;;;;;;;5.10;1.40;;;;;;;17.46;76.43;101230.50;4974510;28;20027;-89
2022/07/26 00:51:15;;;;;;;6.03;1.50;;;;;;;17.49;76.18;101226.41;4974342;28;20496;-89
2022/07/26 00:53:41;;;;;;;6.63;1.63;;;;;;;17.54;76.33;101226.31;4973340;28;20126;-89
2022/07/26 00:56:07;;;;;;;7.63;1.30;;;;;;;17.52;75.93;101223.91;4973250;28;20031;-88
2022/07/26 00:58:32;;;;;;;8.17;1.40;;;;;;;17.48;76.65;101220.19;4974251;28;20288;-89
2022/07/26 01:00:57;;;;;;;5.87;1.60;;;;;;;17.50;76.00;101217.19;4973615;28;20023;-88
2022/07/26 01:03:23;;;;;;;4.93;1.40;;;;;;;17.52;76.55;101223.91;4972191;28;20498;-88
2022/07/26 01:05:49;;;;;;;9.20;1.70;;;;;;;17.50;76.47;101217.19;4971590;28;20387;-88
2022/07/26 01:08:15;;;;;;;11.38;1.75;;;;;;;17.50;77.01;101217.19;4974155;28;20023;-88
2022/07/26 01:10:42;;;;;;;7.35;1.90;;;;;;;17.48;77.34;101217.47;4973307;28;20023;-87
2022/07/26 01:13:08;;;;;;;6.85;1.77;;;;;;;17.46;77.34;101221.56;4971315;28;20027;-88
2022/07/26 01:15:33;;;;;;;9.37;2.27;;;;;;;17.46;78.03;101216.16;4972972;28;20505;-88
2022/07/26 01:17:58;;;;;;;14.60;2.65;;;;;;;17.45;77.94;101225.38;4974105;28;20029;-88
2022/07/26 01:20:24;;;;;;;9.83;1.90;;;;;;;17.44;77.59;101218.34;4973101;28;20030;-88
2022/07/26 01:22:49;;;;;;;6.70;1.67;;;;;;;17.44;77.77;101221.06;4972582;28;20390;-88
2022/07/26 01:25:14;;;;;;;7.77;1.70;;;;;;;17.48;77.77;101211.25;4973325;28;20066;-88
2022/07/26 01:27:40;;;;;;;11.90;1.60;;;;;;;17.53;78.12;101213.88;4972934;28;20058;-88
2022/07/26 01:30:09;;;;;;;11.93;2.00;;;;;;;17.47;78.56;101212.34;4973729;28;20031;-88
2022/07/26 01:32:34;;;;;;;8.30;1.70;;;;;;;17.46;78.07;101213.44;4954296;28;20034;-89
2022/07/26 01:35:00;;;;;;;8.57;2.20;;;;;;;17.39;78.57;101203.78;4973609;28;20085;-89
2022/07/26 01:37:25;;;;;;;11.57;2.10;;;;;;;17.40;79.04;101194.56;4955876;28;20039;-89
2022/07/26 01:39:50;;;;;;;12.77;2.03;;;;;;;17.39;79.37;101203.78;4940545;28;20042;-89
2022/07/26 01:42:16;;;;;;;7.20;2.00;;;;;;;17.39;79.96;101198.38;4970566;28;20049;-89
2022/07/26 01:44:41;;;;;;;7.63;1.90;;;;;;;17.33;81.14;101213.09;4955023;28;20306;-89
2022/07/26 01:47:06;;;;;;;11.37;2.10;;;;;;;17.17;82.02;101211.69;4954763;28;20070;-89
2022/07/26 01:49:32;;;;;;;7.17;2.10;;;;;;;17.13;83.58;101216.91;4973771;28;20509;-90
2022/07/26 01:51:57;;;;;;;7.87;1.87;;;;;;;17.15;83.28;101213.91;4972247;28;20106;-88
2022/07/26 01:54:22;;;;;;;13.17;2.40;;;;;;;17.19;82.75;101215.75;4968782;28;20077;-89
2022/07/26 01:56:48;;;;;;;9.05;2.05;;;;;;;17.17;82.69;101223.34;4973949;28;20023;-89
2022/07/26 01:59:13;;;;;;;9.87;2.10;;;;;;;17.17;83.48;101217.13;4973552;28;20065;-88
2022/07/26 02:01:38;;;;;;;7.27;2.03;;;;;;;17.19;82.36;101220.34;4973335;28;20037;-87
2022/07/26 02:04:03;;;;;;;11.17;2.47;;;;;;;17.22;82.62;101228.69;4970411;28;20038;-88
2022/07/26 02:06:29;;;;;;;7.60;1.90;;;;;;;17.24;82.30;101233.81;4972399;28;20502;-87
2022/07/26 02:08:54;;;;;;;6.90;1.90;;;;;;;17.22;82.32;101236.00;4973338;28;20038;-88
2022/07/26 02:11:21;;;;;;;12.80;2.07;;;;;;;17.22;82.78;101225.19;4972989;28;20534;-87
2022/07/26 02:13:47;;;;;;;7.38;2.15;;;;;;;17.30;81.89;101226.41;4969652;28;20039;-89
2022/07/26 02:16:13;;;;;;;12.27;2.67;;;;;;;17.29;81.85;101225.63;4971444;28;20101;-88
2022/07/26 02:18:39;;;;;;;7.93;2.20;;;;;;;17.28;82.50;101232.13;4972493;28;20023;-89
2022/07/26 02:21:06;;;;;;;11.03;2.17;;;;;;;17.33;82.06;101231.25;4972958;28;20029;-88
2022/07/26 02:23:31;;;;;;;14.10;2.45;;;;;;;17.33;81.90;101225.84;4968198;28;20051;-88
2022/07/26 02:25:57;;;;;;;9.00;2.28;;;;;;;17.37;82.10;101227.66;4973285;28;20109;-87
2022/07/26 02:28:22;;;;;;;10.40;2.50;;;;;;;17.36;82.24;101228.75;4973210;28;20051;-88
2022/07/26 02:30:49;;;;;;;14.77;2.60;;;;;;;17.38;81.95;101233.88;4973281;28;20026;-88
2022/07/26 02:33:15;;;;;;;10.13;2.50;;;;;;;17.41;81.69;101233.31;4969225;28;20298;-88
2022/07/26 02:35:41;;;;;;;13.27;2.80;;;;;;;17.35;82.51;101231.75;4958179;28;20033;-88
2022/07/26 02:38:10;;;;;;;16.50;2.85;;;;;;;17.36;82.37;101236.06;4970913;28;20735;-88
2022/07/26 02:40:36;;;;;;;14.27;2.60;;;;;;;17.34;82.63;101236.38;4973061;28;20104;-88
2022/07/26 02:43:02;;;;;;;9.48;2.20;;;;;;;17.36;81.82;101241.50;4968550;28;20505;-88
2022/07/26 02:45:28;;;;;;;13.00;2.78;;;;;;;17.26;82.73;101243.25;4971302;28;20106;-88
2022/07/26 02:47:54;;;;;;;17.03;2.80;;;;;;;17.25;82.76;101251.66;4985252;28;20204;-88
2022/07/26 02:50:22;;;;;;;10.10;2.35;;;;;;;17.17;83.40;101250.44;4991974;28;20027;-88
2022/07/26 02:52:48;;;;;;;13.80;2.70;;;;;;;17.12;84.11;101249.69;4990658;28;20026;-88
2022/07/26 02:55:20;;;;;;;8.90;2.50;;;;;;;17.07;84.33;101250.59;4991595;28;20030;-88
2022/07/26 02:57:46;;;;;;;11.95;2.80;;;;;;;17.12;83.82;101252.41;4957958;28;20038;-88
2022/07/26 03:00:14;;;;;;;10.10;2.70;;;;;;;17.12;84.02;101252.41;4992313;28;20023;-87
2022/07/26 03:02:39;;;;;;;11.47;2.60;;;;;;;17.09;84.70;101254.59;4984045;28;20317;-89
2022/07/26 03:05:06;;;;;;;12.85;2.60;;;;;;;17.07;84.30;101256.78;4991596;28;20053;-88
2022/07/26 03:07:31;;;;;;;10.10;2.53;;;;;;;17.08;85.15;101254.88;4992862;28;20038;-89
2022/07/26 03:09:59;;;;;;;11.27;2.63;;;;;;;17.05;84.49;101260.88;4992757;28;20549;-89
2022/07/26 03:12:24;;;;;;;11.68;2.70;;;;;;;17.06;84.14;101259.78;4991740;28;20060;-89
2022/07/26 03:14:52;;;;;;;9.93;2.55;;;;;;;17.02;85.55;101264.19;4989654;28;20116;-89
2022/07/26 03:17:17;;;;;;;12.48;3.00;;;;;;;17.00;85.31;101267.16;4993696;28;20014;-89
2022/07/26 03:19:43;;;;;;;15.73;3.53;;;;;;;16.98;86.15;101265.84;4993089;28;20062;-89
2022/07/26 03:22:09;;;;;;;13.77;3.43;;;;;;;16.98;86.64;101271.25;4991386;28;20433;-89
2022/07/26 03:24:34;;;;;;;17.67;3.10;;;;;;;16.97;86.70;101278.59;4990439;28;20030;-89
2022/07/26 03:26:59;;;;;;;14.13;3.87;;;;;;;16.97;87.66;101278.59;4992908;28;20118;-89
2022/07/26 03:29:25;;;;;;;15.80;3.70;;;;;;;16.99;87.38;101278.28;4995617;28;20113;-90
2022/07/26 03:31:50;;;;;;;15.98;3.35;;;;;;;17.00;87.39;101274.47;4979103;28;20034;-85
2022/07/26 03:34:16;;;;;;;15.83;3.50;;;;;;;17.00;87.38;101279.91;4993575;28;20056;-86
2022/07/26 03:36:43;;;;;;;15.53;3.53;;;;;;;17.01;87.65;101286.94;4982802;28;20406;-87
2022/07/26 03:39:08;;;;;;;10.18;3.30;;;;;;;17.03;87.70;101290.16;4980524;28;20033;-87
2022/07/26 03:41:34;;;;;;;14.57;2.92;;;;;;;17.05;87.61;101291.47;4995665;28;20034;-87
2022/07/26 03:43:59;;;;;;;15.33;3.13;;;;;;;17.10;86.39;101294.13;4994372;28;20030;-86
2022/07/26 03:46:24;;;;;;;19.13;3.77;;;;;;;17.11;87.17;101297.63;4991531;28;20038;-86
2022/07/26 03:48:50;;;;;;;18.33;4.05;;;;;;;17.09;87.73;101292.50;4974941;28;20031;-85
2022/07/26 03:51:15;;;;;;;16.53;3.37;;;;;;;17.08;86.93;101292.78;4957994;28;20117;-86
2022/07/26 03:53:40;;;;;;;17.40;3.80;;;;;;;17.03;87.47;101292.84;4975131;28;20156;-86
2022/07/26 03:58:50;;;;;;;16.40;3.53;;;;;;;16.97;89.11;101294.00;4975293;28;20053;-87
2022/07/26 04:01:15;;;;;;;17.43;3.53;;;;;;;16.94;89.10;101303.50;4975860;28;20022;-86
2022/07/26 04:03:40;;;;;;;15.80;3.57;;;;;;;16.94;89.21;101296.16;4974324;28;20042;-87
2022/07/26 04:06:06;;;;;;;12.75;3.15;;;;;;;16.96;88.97;101295.91;4975360;28;20062;-87
2022/07/26 04:08:31;;;;;;;11.00;3.40;;;;;;;16.98;88.53;101301.03;4976583;28;20038;-91
2022/07/26 04:10:56;;;;;;;15.73;3.77;;;;;;;16.94;89.14;101301.56;4977594;28;20035;-91
2022/07/26 04:16:06;;;;;;;18.50;3.85;;;;;;;16.91;88.71;101283.19;4988812;28;20050;-91
2022/07/26 04:18:32;;;;;;;12.82;3.42;;;;;;;17.02;88.47;101293.94;5001274;28;20106;-88
2022/07/26 04:20:59;;;;;;;15.93;3.50;;;;;;;17.07;88.27;101296.59;5002501;28;20057;-88
2022/07/26 04:23:36;;;;;;;17.77;3.80;;;;;;;17.06;87.86;101287.66;4990133;28;20129;-86
2022/07/26 04:26:02;;;;;;;12.85;3.50;;;;;;;17.22;88.26;101311.81;4995155;28;20084;-87
2022/07/26 04:28:33;;;;;;;17.55;3.95;;;;;;;17.21;88.48;101308.31;4995983;28;20102;-87
2022/07/26 04:30:59;;;;;;;15.30;3.90;;;;;;;17.27;87.15;101319.88;4996045;28;20027;-86
2022/07/26 04:33:34;;;;;;;18.50;3.30;;;;;;;17.33;86.44;101313.31;4994291;28;20138;-87
2022/07/26 04:36:05;;;;;;;17.08;3.28;;;;;;;17.42;86.84;101321.59;4995009;28;20033;-87
2022/07/26 04:38:34;;;;;;;18.65;3.47;;;;;;;17.40;86.92;101307.53;4995480;28;20034;-86
2022/07/26 04:40:59;;;;;;;20.95;4.13;;;;;;;17.50;87.17;101322.84;4978260;28;20018;-86
2022/07/26 04:43:24;;;;;;;17.37;3.97;;;;;;;17.52;86.55;101321.44;4989952;28;20118;-87
2022/07/26 04:45:50;;;;;;;15.87;3.60;;;;;;;17.55;86.93;101311.91;4987544;28;20393;-87
2022/07/26 04:48:15;;;;;;;13.80;2.93;;;;;;;17.58;86.68;101319.47;5005254;28;20061;-87
2022/07/26 04:50:42;;;;;;;18.23;3.65;;;;;;;17.60;85.94;101327.31;5007205;28;20029;-87
2022/07/26 04:53:10;;;;;;;15.88;3.60;;;;;;;17.60;86.49;101327.31;4997668;28;20025;-87
2022/07/26 04:55:36;;;;;;;15.30;3.10;;;;;;;17.62;85.60;101325.91;5005077;28;20034;-87
2022/07/26 04:58:01;;;;;;;14.13;3.40;;;;;;;17.64;85.82;101323.72;5010579;28;20094;-87
2022/07/26 05:00:27;;;;;;;7.17;3.07;;;;;;;17.60;84.91;101330.03;5001050;28;20277;-88
2022/07/26 05:02:55;;;;;;;20.33;3.13;;;;;;;17.51;86.78;101335.28;4994768;28;20037;-88
2022/07/26 05:05:22;;;;;;;17.85;3.33;;;;;;;17.55;86.37;101344.41;4989798;28;20474;-92
2022/07/26 05:07:53;;;;;;;11.30;3.13;;;;;;;17.48;86.55;101335.88;4977593;28;20026;-87
2022/07/26 05:10:52;;;;;;;15.02;3.80;;;;;;;17.39;86.37;101350.06;4990982;28;20076;-87
2022/07/26 05:40:26;;;;;;;;;;;;;;;;;;;;;
2022/07/26 05:42:52;;;;;;;11.73;3.45;;;;;;;23.72;59.17;101358.69;5002290;28;20042;-89
2022/07/26 05:45:17;;;;;;;14.03;3.03;;;;;;;23.63;60.36;101370.84;5005506;28;20118;-89
2022/07/26 05:56:45;;;;;;;11.35;3.15;;;;;;;22.62;62.60;101384.09;5274239;22;20345;-87
2022/07/26 05:59:13;;;;;;;13.63;3.40;;;;;;;22.12;63.67;101374.53;5030913;28;20564;-88
2022/07/26 06:01:49;;;;;;;13.43;3.42;;;;;;;21.87;64.76;101376.94;5014022;28;20112;-88
2022/07/26 06:04:14;;;;;;;17.50;3.57;;;;;;;21.61;65.40;101386.75;5032110;28;20021;-88
2022/07/26 06:06:40;;;;;;;11.80;3.93;;;;;;;21.38;66.72;101388.78;5011261;28;20866;-88
2022/07/26 06:09:33;;;;;;;14.97;3.77;;;;;;;21.14;67.43;101381.81;5010882;28;20018;-88
2022/07/26 06:12:12;;;;;;;13.10;3.75;;;;;;;20.99;68.09;101382.25;5012308;28;20064;-89
2022/07/26 06:14:37;;;;;;;13.45;3.83;;;;;;;20.97;68.17;101381.75;5011617;28;20030;-88
2022/07/26 06:17:05;;;;;;;10.33;3.93;;;;;;;20.84;69.10;101372.56;5011338;28;20026;-89
2022/07/26 06:20:10;;;;;;;12.05;3.60;;;;;;;20.77;68.87;101374.97;5012215;28;20037;-89
2022/07/26 06:23:07;;;;;;;11.73;3.42;;;;;;;20.73;69.10;101394.63;5002449;28;20058;-88
2022/07/26 06:26:01;;;;;;;11.68;3.17;;;;;;;20.52;69.96;101383.47;4993303;28;20374;-88
2022/07/26 06:28:44;;;;;;;11.85;3.25;;;;;;;20.37;70.22;101387.38;4992467;28;20095;-89
2022/07/26 06:31:12;;;;;;;8.10;3.17;;;;;;;20.30;70.74;101381.56;5006969;28;20026;-88
2022/07/26 06:33:37;;;;;;;10.32;3.40;;;;;;;20.46;70.81;101402.94;5011200;28;20022;-88
2022/07/26 06:36:03;;;;;;;9.90;3.50;;;;;;;20.41;70.73;101393.81;5010057;28;20033;-88
2022/07/26 06:41:50;;;;;;;13.45;3.03;;;;;;;20.47;69.86;101394.47;4974264;28;20036;-91
2022/07/26 06:44:21;;;;;;;11.10;3.13;;;;;;;20.48;69.64;101393.38;5010570;28;20057;-91
2022/07/26 06:46:47;;;;;;;16.13;3.25;;;;;;;20.52;69.59;101380.75;5011830;28;20038;-91
2022/07/26 06:49:32;;;;;;;12.70;3.05;;;;;;;20.67;68.53;101397.78;4963383;28;20046;-88
2022/07/26 06:52:09;;;;;;;7.57;3.22;;;;;;;20.69;68.56;101395.56;5009493;28;20124;-87
2022/07/26 06:54:35;;;;;;;6.90;2.90;;;;;;;20.67;67.46;101398.59;5010232;28;20029;-91
2022/07/26 07:05:45;;;;;;;8.15;2.90;;;;;;;21.20;65.13;101409.72;4905156;26;20046;-96
2022/07/26 07:18:50;;;;;;;8.70;2.42;;;;;;;22.14;61.84;101424.91;4945213;28;20042;-93
2022/07/26 07:22:10;;;;;;;;;;;;;;;;;;;;;
2022/07/26 07:25:24;;;;;;;8.23;2.80;;;;;;;22.68;61.13;101440.94;4924303;29;20463;-91
2022/07/26 07:27:52;;;;;;;10.77;2.38;;;;;;;22.95;57.95;101438.88;4881672;29;20040;-92
2022/07/26 07:30:17;;;;;;;8.25;2.10;;;;;;;22.74;58.02;101425.16;4909840;29;20052;-92
2022/07/26 07:32:45;;;;;;;7.10;2.20;;;;;;;22.47;57.49;101427.16;4919787;29;20064;-92
2022/07/26 07:35:46;;;;;;;8.88;1.90;;;;;;;22.65;59.39;101447.03;4939784;28;20089;-91
2022/07/26 07:38:35;;;;;;;11.05;2.22;;;;;;;22.71;57.88;101458.59;4915899;29;20111;-92
2022/07/26 07:41:10;;;;;;;11.50;2.35;;;;;;;22.84;56.81;101449.38;4914757;29;20137;-90
2022/07/26 07:44:00;;;;;;;6.88;1.73;;;;;;;23.24;56.91;101442.00;4912133;29;20059;-91
2022/07/26 07:46:32;;;;;;;4.13;1.57;;;;;;;23.46;55.50;101435.47;4915606;29;20055;-91
2022/07/26 07:49:17;;;;;;;3.23;1.80;;;;;;;23.80;54.98;101447.31;4985447;28;20408;-90
2022/07/26 07:51:42;;;;;;;5.85;1.60;;;;;;;24.00;53.29;101440.25;4993407;28;20026;-92
2022/07/26 07:54:40;;;;;;;6.47;1.70;;;;;;;24.03;54.01;101452.44;4974988;28;20031;-91
2022/07/26 07:57:20;;;;;;;5.07;2.00;;;;;;;24.31;54.15;101441.72;4992722;28;20045;-91
2022/07/26 08:00:35;;;;;;;5.47;1.70;;;;;;;24.67;53.88;101442.16;5004774;28;20109;-91
2022/07/26 08:03:11;;;;;;;7.07;2.17;;;;;;;24.33;53.46;101444.13;5001741;28;20038;-92
2022/07/26 08:06:04;;;;;;;7.07;2.20;;;;;;;24.08;53.88;101443.25;4991812;28;20042;-90
2022/07/26 08:08:33;;;;;;;6.28;2.15;;;;;;;23.90;53.59;101444.16;4948397;28;20036;-91
2022/07/26 08:11:29;;;;;;;11.05;2.50;;;;;;;23.82;53.87;101439.56;4990389;28;20037;-94
2022/07/26 08:14:42;;;;;;;8.80;2.72;;;;;;;23.43;54.69;101438.84;4978143;28;20039;-91
2022/07/26 08:19:36;;;;;;;6.45;2.80;;;;;;;22.20;58.79;101466.50;4988405;28;20050;-87
2022/07/26 08:22:03;;;;;;;6.30;1.77;;;;;;;21.58;62.77;101488.22;4976244;28;20061;-89
2022/07/26 08:24:28;;;;;;;3.95;1.60;;;;;;;21.07;64.71;101476.03;4975935;28;20015;-89
2022/07/26 08:26:53;;;;;;;7.10;1.13;;;;;;;20.95;66.79;101484.78;4975482;28;20042;-90
2022/07/26 08:29:19;;;;;;;2.30;0.87;;;;;;;20.62;67.22;101498.66;4970910;28;20045;-89
2022/07/26 08:31:44;;;;;;;3.37;1.10;;;;;;;20.59;68.27;101500.09;4970912;28;20027;-89
2022/07/26 08:34:10;;;;;;;1.20;0.75;;;;;;;20.90;67.12;101498.53;4970567;28;20034;-88
2022/07/26 08:36:35;;;;;;;2.60;0.87;;;;;;;21.17;66.31;101498.34;4969914;28;20038;-89
2022/07/26 08:39:01;;;;;;;70.97;2.50;;;;;;;21.31;65.16;101498.25;4967198;28;20057;-88
2022/07/26 08:41:27;;;;;;;0.98;0.50;;;;;;;21.36;64.96;101507.41;4963694;28;20022;-89
2022/07/26 08:43:52;;;;;;;2.57;0.60;;;;;;;21.62;64.81;101499.34;4976694;28;20556;-89
2022/07/26 08:46:17;;;;;;;0.57;0.43;;;;;;;21.56;63.88;101514.22;4971666;28;20034;-88
2022/07/26 08:48:43;;;;;;;1.03;0.50;;;;;;;21.38;63.97;101510.59;4977001;28;20062;-91
2022/07/26 08:51:09;;;;;;;1.53;0.50;;;;;;;21.35;64.84;101514.78;4987012;28;20035;-91
2022/07/26 09:03:18;;;;;;;;;;;;;;;;;;;;;
2022/07/26 13:59:32;;;;;;;8.05;2.13;;;;;;;21.38;66.47;101687.78;4995542;28;20046;-93
2022/07/26 14:11:44;;;;;;;3.97;1.73;;;;;;;20.89;67.13;101688.38;4980828;28;20036;-93
2022/07/26 14:14:10;;;;;;;5.15;1.80;;;;;;;20.72;69.07;101681.66;4950553;28;20038;-94
2022/07/26 14:20:20;;;;;;;3.75;1.60;;;;;;;20.46;71.16;101695.00;4931613;29;20032;-93
2022/07/26 14:22:45;;;;;;;4.07;1.50;;;;;;;20.55;71.26;101681.47;4932548;29;20500;-92
2022/07/26 14:25:11;;;;;;;3.53;1.30;;;;;;;20.92;69.42;101685.06;4931260;29;20083;-93
2022/07/26 14:27:45;;;;;;;3.13;1.40;;;;;;;21.25;68.45;101684.03;4916831;29;20122;-92
2022/07/26 14:30:32;;;;;;;9.23;1.90;;;;;;;21.54;68.30;101701.84;4932378;29;20043;-94
2022/07/26 14:33:04;;;;;;;4.70;1.92;;;;;;;21.54;68.25;101691.75;4933331;29;20023;-95
2022/07/26 14:39:10;;;;;;;5.82;2.40;;;;;;;21.65;70.72;101699.69;4874805;29;20055;-90
2022/07/26 14:42:03;;;;;;;4.88;2.33;;;;;;;22.12;67.70;101704.72;4876529;29;20037;-95
2022/07/26 14:57:19;;;;;;;;;;;;;;;;;;;;;
2022/07/26 14:59:50;;;;;;;5.10;1.20;;;;;;;22.88;54.97;101691.88;4996677;28;20033;-94
2022/07/26 15:02:16;;;;;;;3.35;1.25;;;;;;;22.75;54.98;101682.72;5017566;28;20491;-94
2022/07/26 15:28:37;;;;;;;7.82;2.08;;;;;;;23.11;51.56;101685.13;5946349;22;20054;-94
2022/07/26 15:59:37;;;;;;;8.70;1.90;;;;;;;22.16;52.75;101684.66;5178378;23;20066;-89
2022/07/26 16:02:46;;;;;;;9.93;1.77;;;;;;;21.93;53.62;101687.47;4992734;28;20308;-90
2022/07/26 16:05:11;;;;;;;6.60;2.28;;;;;;;21.32;54.64;101676.19;4965723;28;20045;-89
2022/07/26 16:28:15;;;;;;;11.27;1.98;;;;;;;21.07;56.11;101693.97;4998041;23;20494;-91
2022/07/26 16:31:14;;;;;;;39.92;23.25;;;;;;;21.71;54.98;101695.72;4988513;28;20038;-91
2022/07/26 16:33:49;;;;;;;14.43;2.67;;;;;;;22.52;51.06;101691.06;4992590;28;20034;-91
2022/07/26 16:36:34;;;;;;;8.05;2.20;;;;;;;22.92;50.43;101706.50;4997324;28;20065;-91
2022/07/26 16:39:34;;;;;;;9.90;1.83;;;;;;;23.07;48.36;101706.03;4989525;28;20026;-92
2022/07/26 16:42:05;;;;;;;9.40;2.10;;;;;;;22.76;49.24;101690.59;4930546;29;20327;-89
2022/07/26 16:44:58;;;;;;;;;;;;;;;;;;;;;
2022/07/26 16:47:30;;;;;;;11.00;2.30;;;;;;;22.18;49.88;101676.19;4939632;29;20039;-88
2022/07/26 16:50:10;;;;;;;6.75;1.85;;;;;;;22.27;49.74;101684.41;4933648;29;20027;-90
2022/07/26 16:52:38;;;;;;;9.60;1.80;;;;;;;22.09;50.22;101681.63;4932420;29;20099;-90
2022/07/26 16:58:43;;;;;;;6.10;1.50;;;;;;;22.02;49.55;101686.72;4895500;29;20123;-90
2022/07/26 17:04:43;;;;;;;7.63;1.75;;;;;;;21.76;50.54;101688.22;5653748;23;20049;-90
2022/07/26 17:10:31;;;;;;;8.25;3.10;;;;;;;21.42;50.48;101688.78;5004665;28;20096;-90
2022/07/26 17:17:14;;;;;;;8.07;1.60;;;;;;;20.99;50.64;101712.69;4973660;28;20078;-90
2022/07/26 17:19:40;;;;;;;10.10;1.73;;;;;;;20.73;52.25;101696.88;4976890;28;20059;-91
2022/07/26 17:27:45;;;;;;;7.38;1.50;;;;;;;20.33;52.64;101726.56;5189253;23;20058;-90
2022/07/26 17:37:47;;;;;;;6.22;1.58;;;;;;;20.07;53.56;101720.81;5013181;28;20096;-91
2022/07/26 17:40:14;;;;;;;7.80;1.92;;;;;;;19.79;54.40;101702.50;5013870;28;20112;-91
2022/07/26 18:09:16;;;;;;;7.85;1.75;;;;;;;19.24;55.46;101740.34;4900889;29;20143;-87
2022/07/26 18:12:03;;;;;;;5.45;1.55;;;;;;;19.21;55.20;101747.19;4925654;28;20038;-90
2022/07/26 18:14:42;;;;;;;6.20;1.42;;;;;;;19.02;55.37;101734.44;4949599;29;20031;-91
2022/07/26 18:27:48;;;;;;;9.10;1.30;;;;;;;18.50;56.03;101745.09;4955124;29;20110;-91
2022/07/26 18:33:48;;;;;;;10.37;1.50;;;;;;;18.12;57.48;101729.50;4943718;29;20307;-91
2022/07/26 19:09:19;;;;;;;9.07;1.30;;;;;;;17.32;58.28;101726.09;5013164;28;20719;-89
2022/07/26 19:15:30;;;;;;;6.17;1.40;;;;;;;17.06;59.37;101731.66;4918080;29;20332;-89
2022/07/26 19:18:39;;;;;;;4.60;0.90;;;;;;;17.00;59.76;101754.44;4934022;29;20118;-89
2022/07/26 19:21:32;;;;;;;8.13;1.10;;;;;;;16.83;60.15;101757.47;4925094;29;20610;-90
2022/07/26 19:24:10;;;;;;;8.55;1.30;;;;;;;16.63;60.63;101744.81;4912953;29;20436;-91
2022/07/26 19:27:32;;;;;;;5.85;1.10;;;;;;;16.69;60.54;101768.09;4923432;29;20134;-91
2022/07/26 19:30:22;;;;;;;;;;;;;;;;;;;;;
2022/07/26 19:32:47;;;;;;;9.18;1.40;;;;;;;16.58;61.22;101764.59;4938424;29;20127;-91
2022/07/26 19:35:13;;;;;;;12.02;1.20;;;;;;;16.51;61.93;101766.81;4940794;29;20063;-91
2022/07/26 19:37:39;;;;;;;8.10;1.20;;;;;;;16.45;61.37;101765.19;4955591;28;20050;-90
2022/07/26 19:43:03;;;;;;;5.72;1.02;;;;;;;16.48;61.65;101789.00;4987320;28;20085;-90
2022/07/26 19:45:29;;;;;;;5.90;1.25;;;;;;;16.49;62.28;101791.41;4988978;28;20026;-90
2022/07/26 19:47:54;;;;;;;6.30;1.07;;;;;;;16.45;62.32;101786.81;4984295;28;20553;-90
2022/07/26 19:50:19;;;;;;;6.93;1.17;;;;;;;16.48;62.22;101797.09;4987084;28;20490;-90
2022/07/26 19:52:44;;;;;;;4.60;1.27;;;;;;;16.44;62.49;101799.53;4991562;28;20030;-90
2022/07/26 19:55:10;;;;;;;7.90;1.98;;;;;;;16.40;62.73;101801.19;4997645;28;20092;-90
2022/07/26 19:57:36;;;;;;;6.90;1.00;;;;;;;16.40;63.14;101801.19;4984012;28;20030;-89
2022/07/26 20:00:04;;;;;;;9.27;1.33;;;;;;;16.41;62.79;101813.63;4987474;28;20486;-91
2022/07/26 20:02:29;;;;;;;6.55;1.33;;;;;;;16.42;62.37;101811.72;4980147;28;20027;-91
2022/07/26 20:04:55;;;;;;;4.95;1.15;;;;;;;16.46;63.20;101810.88;4998446;28;20109;-90
2022/07/26 20:07:20;;;;;;;8.40;1.30;;;;;;;16.35;62.79;101807.38;4996499;28;20034;-89
2022/07/26 20:09:47;;;;;;;6.97;1.10;;;;;;;16.30;62.84;101822.81;4995135;28;20030;-90
2022/07/26 20:12:13;;;;;;;9.55;1.20;;;;;;;16.25;63.63;101820.13;4991936;28;20030;-89
2022/07/26 20:14:38;;;;;;;7.90;1.30;;;;;;;16.23;63.94;101819.59;4994915;28;20030;-90
2022/07/26 20:17:04;;;;;;;6.67;1.40;;;;;;;16.19;64.05;101827.41;4994811;28;20507;-89
2022/07/26 20:19:29;;;;;;;4.80;1.15;;;;;;;16.10;63.90;101827.16;4977341;28;20027;-89
2022/07/26 20:21:55;;;;;;;8.93;1.30;;;;;;;16.06;63.99;101828.81;4991719;28;20033;-89
2022/07/26 20:24:20;;;;;;;8.63;1.40;;;;;;;16.03;64.56;101829.34;4992464;28;20030;-90
2022/07/26 20:26:46;;;;;;;5.70;1.60;;;;;;;16.01;64.78;101831.50;4995538;28;20049;-91
2022/07/26 20:29:11;;;;;;;9.35;1.40;;;;;;;15.96;64.67;101832.31;4994590;28;20018;-90
2022/07/26 20:31:37;;;;;;;6.43;1.50;;;;;;;15.92;64.88;101827.69;4991700;28;20030;-91
2022/07/26 20:34:02;;;;;;;3.80;1.27;;;;;;;15.94;65.27;101829.06;4993622;28;20027;-90
2022/07/26 20:36:27;;;;;;;9.13;1.40;;;;;;;15.88;65.45;101839.06;4993342;28;20037;-90
2022/07/26 20:38:53;;;;;;;9.65;1.45;;;;;;;15.83;65.71;101843.59;4996040;28;20085;-92
2022/07/26 20:41:18;;;;;;;3.77;1.30;;;;;;;15.76;66.44;101838.47;4993569;28;20022;-88
2022/07/26 20:43:43;;;;;;;6.47;1.43;;;;;;;15.78;66.57;101840.91;4990717;28;20029;-88
2022/07/26 20:46:09;;;;;;;10.30;1.30;;;;;;;15.70;66.42;101837.66;4988217;28;20449;-86
2022/07/26 20:48:34;;;;;;;8.23;1.50;;;;;;;15.61;66.87;101841.97;4992446;28;20084;-87
2022/07/26 20:50:59;;;;;;;13.63;1.50;;;;;;;15.62;67.40;101851.66;4992225;28;20034;-87
2022/07/26 20:53:25;;;;;;;4.32;1.40;;;;;;;15.66;67.44;101852.75;4990820;28;20109;-87
2022/07/26 20:55:50;;;;;;;7.47;1.20;;;;;;;15.65;67.58;101850.34;4975126;28;20054;-87
2022/07/26 20:58:16;;;;;;;6.63;1.40;;;;;;;15.62;67.41;101858.97;4993378;28;20057;-87
2022/07/26 21:00:42;;;;;;;9.55;1.88;;;;;;;15.56;68.06;101858.16;4991903;28;20030;-87
2022/07/26 21:03:07;;;;;;;5.13;1.38;;;;;;;15.52;68.53;101862.47;4992258;28;20034;-87
2022/07/26 21:05:33;;;;;;;10.63;1.40;;;;;;;15.49;68.52;101858.41;4992307;28;20042;-87
2022/07/26 21:07:58;;;;;;;4.33;1.37;;;;;;;15.52;68.52;101860.56;4988901;28;20088;-87
2022/07/26 21:10:24;;;;;;;6.63;1.45;;;;;;;15.49;69.39;101865.69;4990590;28;20038;-87
2022/07/26 21:12:50;;;;;;;6.20;1.20;;;;;;;15.47;69.19;101865.97;4991246;28;20034;-87
2022/07/26 21:15:15;;;;;;;9.07;1.27;;;;;;;15.49;69.00;101868.38;4975251;28;20026;-87
2022/07/26 21:17:41;;;;;;;4.63;1.20;;;;;;;15.45;69.40;101866.22;4991892;28;20030;-87
2022/07/26 21:20:06;;;;;;;7.83;1.40;;;;;;;15.41;69.27;101862.44;4990823;28;20044;-86
2022/07/26 21:22:32;;;;;;;5.30;1.10;;;;;;;15.37;70.01;101863.22;4991101;28;20094;-87
2022/07/26 21:24:57;;;;;;;4.07;1.10;;;;;;;15.34;69.69;101869.97;4992133;28;20477;-87